Terminal Aerodrome Forecast
Issued by NWS

Home | Current Version | Previous Version | Graphics & Text | Print | Product List | Glossary On
Versions: 1 2 3 4 5 6 7 8 9 10 11 12 13 14 15 16 17 18 19
456
FTUS43 KMPX 262320
TAFAXN
TAF
KAXN 262320Z 2700/2724 28009KT P6SM FEW250
     FM270200 19004KT P6SM SCT250
     FM271200 10007KT P6SM OVC250
     FM271600 10009KT P6SM BKN050 OVC100 PROB30 2716/2720 5SM -SHRA
      OVC030=

USA.gov is the U.S. government's official web portal to all federal, state and local government web resources and services.